Time;durP1;ratioP1;P1;durP2;ratioP2;P2;SDS_P1;SDS_P2;PMS_P1;PMS_P2;Temp;Humidity;BMP_temperature;BMP_pressure;BME280_temperature;BME280_humidity;BME280_pressure;Samples;Min_cycle;Max_cycle;Signal;HPM_P1;HPM_P2
2021/09/12 00:02:17;;;;;;;;;;;;;;;;;;;;;
2021/09/12 00:04:54;;;;;;;;;60.75;49.75;;;;;19.98;50.02;101492.66;6297277;22;69172;-93
2021/09/12 00:21:25;;;;;;;;;47.80;40.40;;;;;19.89;49.69;101464.63;6309045;22;44921;-93
2021/09/12 00:24:36;;;;;;;;;64.20;52.60;;;;;19.92;49.44;101458.97;6305622;22;45001;-94
2021/09/12 00:27:09;;;;;;;;;53.80;45.60;;;;;19.87;48.68;101466.59;6331719;22;44768;-93
2021/09/12 00:29:56;;;;;;;;;55.00;46.25;;;;;19.82;48.22;101460.75;6280500;22;45218;-93
2021/09/12 00:32:31;;;;;;;;;56.75;47.50;;;;;19.95;49.12;101476.72;6282681;22;44906;-94
2021/09/12 00:35:09;;;;;;;;;56.00;46.50;;;;;19.95;49.25;101474.84;6254459;22;44834;-95
2021/09/12 00:37:50;;;;;;;;;53.00;45.50;;;;;19.93;49.58;101463.34;6307993;22;44803;-94
2021/09/12 00:40:23;;;;;;;;;39.75;36.00;;;;;20.07;49.81;101482.91;6279028;22;45322;-93
2021/09/12 00:46:37;;;;;;;;;;;;;;;;;;;;;
2021/09/12 00:49:44;;;;;;;;;44.50;39.00;;;;;19.90;49.24;101469.03;6283517;22;69514;-94
2021/09/12 00:52:24;;;;;;;;;56.50;47.75;;;;;20.05;48.17;101491.16;6332034;22;44989;-92
2021/09/12 00:55:29;;;;;;;;;56.50;47.25;;;;;19.79;49.73;101456.47;6277915;22;44769;-94
2021/09/12 00:58:03;;;;;;;;;48.20;40.00;;;;;19.84;50.20;101456.06;6304121;22;44741;-95
2021/09/12 01:00:37;;;;;;;;;57.00;48.25;;;;;19.88;50.02;101465.59;6253000;22;44834;-94
2021/09/12 01:03:25;;;;;;;;;56.50;47.50;;;;;19.93;50.13;101482.25;6304189;22;45007;-95
2021/09/12 01:06:20;;;;;;;;;55.50;46.50;;;;;19.93;50.98;101473.28;6301917;22;44725;-94
2021/09/12 01:09:10;;;;;;;;;;;;;;;;;;;;;
2021/09/12 01:12:17;;;;;;;;;64.25;53.00;;;;;19.94;51.19;101483.09;6275104;22;69391;-94
2021/09/12 01:14:50;;;;;;;;;69.00;56.00;;;;;19.87;51.31;101471.97;6296529;22;45120;-94
2021/09/12 01:17:28;;;;;;;;;58.20;48.80;;;;;19.69;52.10;101453.72;6275686;22;44573;-94
2021/09/12 01:20:06;;;;;;;;;61.75;50.75;;;;;19.78;51.73;101473.63;6275659;22;45101;-94
2021/09/12 01:22:38;;;;;;;;;56.67;47.67;;;;;19.74;51.45;101466.81;6275245;22;44805;-92
2021/09/12 01:25:13;;;;;;;;;65.75;53.50;;;;;19.63;51.79;101455.09;6209381;22;45264;-94
2021/09/12 01:27:49;;;;;;;;;48.00;41.50;;;;;19.58;52.75;101443.00;6235049;22;44544;-93
2021/09/12 01:30:16;;;;;;;;;62.25;51.50;;;;;19.63;52.97;101468.59;6232347;22;44750;-92
2021/09/12 01:32:47;;;;;;;;;56.80;48.00;;;;;19.47;52.87;101449.34;6230985;22;44869;-92
2021/09/12 01:35:14;;;;;;;;;48.00;41.00;;;;;19.59;52.87;101460.88;6232120;22;45607;-93
2021/09/12 01:37:45;;;;;;;;;56.00;47.75;;;;;19.56;52.12;101464.72;6209413;22;44837;-93
2021/09/12 01:40:27;;;;;;;;;58.00;49.25;;;;;19.54;52.76;101479.31;6240605;22;44763;-94
2021/09/12 01:43:19;;;;;;;;;58.80;48.00;;;;;19.37;53.14;101446.59;6231181;22;44895;-94
2021/09/12 01:45:59;;;;;;;;;60.00;50.25;;;;;19.37;53.21;101452.81;6188044;22;45020;-94
2021/09/12 01:52:11;;;;;;;;;70.00;57.50;;;;;19.20;53.46;101446.16;6137108;23;44785;-93
2021/09/12 01:55:01;;;;;;;;;55.50;47.00;;;;;19.22;53.85;101451.44;6197616;22;44783;-93
2021/09/12 01:57:28;;;;;;;;;54.00;46.50;;;;;19.35;53.59;101468.28;6244612;22;45492;-93
2021/09/12 02:05:23;;;;;;;;;59.00;49.60;;;;;19.31;53.56;101444.41;6285574;22;44832;-93
2021/09/12 02:07:56;;;;;;;;;59.80;50.00;;;;;19.38;53.06;101469.84;6246871;22;45454;-92
2021/09/12 02:10:31;;;;;;;;;62.25;51.75;;;;;19.17;51.88;101450.97;6273606;22;44723;-94
2021/09/12 02:13:03;;;;;;;;;63.50;51.50;;;;;19.24;53.50;101476.44;6243788;22;44745;-92
2021/09/12 02:15:38;;;;;;;;;58.80;48.80;;;;;19.03;52.99;101441.31;6246207;22;44833;-93
2021/09/12 02:18:21;;;;;;;;;59.50;48.50;;;;;19.04;53.36;101453.78;6253916;22;45036;-92
2021/09/12 02:21:02;;;;;;;;;61.00;51.60;;;;;19.14;53.35;101460.16;6300415;22;44633;-92
2021/09/12 02:23:49;;;;;;;;;60.25;50.50;;;;;19.05;53.15;101456.38;6273836;22;44701;-93
2021/09/12 02:26:31;;;;;;;;;61.50;50.75;;;;;19.16;53.71;101474.38;6249239;22;44740;-93
2021/09/12 02:29:05;;;;;;;;;68.33;55.00;;;;;19.15;53.76;101479.91;6246286;22;45421;-93
2021/09/12 02:32:17;;;;;;;;;;;;;;;;;;;;;
2021/09/12 02:34:49;;;;;;;;;62.50;52.00;;;;;18.95;53.42;101464.38;6253601;22;68532;-93
2021/09/12 02:37:23;;;;;;;;;66.80;55.00;;;;;19.05;53.99;101485.19;6246471;22;44902;-94
2021/09/12 02:40:15;;;;;;;;;69.25;56.50;;;;;19.08;54.32;101490.34;6255240;22;45166;-93
2021/09/12 02:43:14;;;;;;;;;;;;;;;;;;;;;
2021/09/12 02:46:40;;;;;;;;;57.25;48.50;;;;;19.07;53.67;101491.31;6279892;22;68387;-93
2021/09/12 02:49:13;;;;;;;;;64.75;53.50;;;;;19.03;54.03;101488.00;6268894;22;44799;-92
2021/09/12 02:54:41;;;;;;;;;60.50;49.75;;;;;19.00;54.33;101477.47;6280695;22;44653;-93
2021/09/12 02:58:20;;;;;;;;;60.40;49.80;;;;;18.90;54.88;101452.28;6251714;22;44729;-93
2021/09/12 03:01:00;;;;;;;;;52.25;44.50;;;;;18.90;54.15;101450.44;6148503;23;44887;-93
2021/09/12 03:03:29;;;;;;;;;50.40;42.60;;;;;19.00;54.40;101472.09;6121661;23;45474;-92
2021/09/12 03:05:59;;;;;;;;;61.60;51.60;;;;;18.96;54.51;101478.72;6095155;23;44683;-93
2021/09/12 03:08:35;;;;;;;;;45.00;40.00;;;;;18.79;54.92;101451.31;6100245;23;44802;-93
2021/09/12 03:11:07;;;;;;;;;68.00;56.40;;;;;18.91;55.04;101471.00;6143961;23;45205;-92
2021/09/12 03:13:43;;;;;;;;;55.80;47.60;;;;;18.93;54.60;101476.28;6087321;23;45284;-93
2021/09/12 03:16:29;;;;;;;;;61.50;52.00;;;;;18.83;54.54;101458.16;6162603;23;44626;-92
2021/09/12 03:19:05;;;;;;;;;69.75;57.00;;;;;18.81;54.97;101459.28;6159240;22;45944;-93
2021/09/12 03:21:43;;;;;;;;;60.00;50.25;;;;;18.74;55.61;101448.16;6266938;22;44820;-92
2021/09/12 03:24:19;;;;;;;;;47.00;40.75;;;;;18.83;54.33;101463.56;6302409;22;45244;-93
2021/09/12 03:26:52;;;;;;;;;57.40;48.80;;;;;18.66;55.25;101443.41;6249984;22;44686;-93
2021/09/12 03:29:31;;;;;;;;;59.25;50.00;;;;;18.72;55.60;101469.84;6293577;22;44791;-94
2021/09/12 03:32:36;;;;;;;;;;;;;;;;;;;;;
2021/09/12 03:35:50;;;;;;;;;58.25;47.50;;;;;18.55;55.69;101454.22;6248843;22;74920;-93
2021/09/12 03:38:25;;;;;;;;;72.50;60.75;;;;;18.45;55.71;101452.28;6275297;22;44847;-93
2021/09/12 03:40:57;;;;;;;;;66.20;54.60;;;;;18.38;55.86;101445.69;6287192;22;44892;-93
2021/09/12 03:43:33;;;;;;;;;60.20;50.20;;;;;18.31;56.01;101455.25;6284325;22;44857;-93
2021/09/12 03:46:25;;;;;;;;;70.50;57.50;;;;;18.29;56.21;101457.19;6256295;22;45108;-94
2021/09/12 03:49:16;;;;;;;;;47.75;41.50;;;;;18.31;56.21;101484.84;6226218;22;45911;-92
2021/09/12 03:51:49;;;;;;;;;62.00;51.00;;;;;18.13;56.64;101453.06;6273794;22;44804;-94
2021/09/12 03:54:31;;;;;;;;;60.25;49.25;;;;;18.06;56.73;101447.25;6303440;22;44830;-94
2021/09/12 04:07:20;;;;;;;;;65.00;54.00;;;;;17.89;57.16;101402.88;6242287;22;46663;-93
2021/09/12 04:09:48;;;;;;;;;53.00;46.00;;;;;17.95;56.96;101412.28;6299345;22;44685;-93
2021/09/12 04:12:14;;;;;;;;;49.00;41.50;;;;;17.90;56.95;101411.81;6248499;22;44713;-92
2021/09/12 04:14:40;;;;;;;;;;;;;;;18.15;57.11;101466.38;6249584;22;44880;-93
2021/09/12 04:17:42;;;;;;;;;61.50;51.75;;;;;17.78;57.28;101400.19;6302939;22;44979;-95
2021/09/12 04:20:09;;;;;;;;;62.25;52.00;;;;;17.62;57.55;101379.91;6323471;22;44724;-93
2021/09/12 04:22:35;;;;;;;;;63.50;53.00;;;;;17.71;57.43;101394.47;6256864;22;44650;-95
2021/09/12 04:25:04;;;;;;;;;58.00;49.25;;;;;18.07;57.51;101453.50;6277812;22;44833;-93
2021/09/12 04:27:38;;;;;;;;;66.75;55.00;;;;;18.07;57.57;101459.75;6254464;22;44985;-96
2021/09/12 04:30:08;;;;;;;;;59.75;49.75;;;;;17.75;57.95;101405.81;6310246;22;44642;-94
2021/09/12 04:32:33;;;;;;;;;56.75;48.50;;;;;17.75;57.95;101405.81;6282958;22;44683;-92
2021/09/12 04:35:01;;;;;;;;;49.40;42.60;;;;;17.89;57.62;101434.31;6252889;22;44639;-92
2021/09/12 04:37:28;;;;;;;;;64.50;53.00;;;;;17.74;57.76;101413.03;6305503;22;45138;-95
2021/09/12 04:39:56;;;;;;;;;65.25;54.25;;;;;17.65;57.67;101411.06;6300548;22;44737;-94
2021/09/12 04:42:24;;;;;;;;;58.50;47.75;;;;;17.52;57.76;101398.59;6299901;22;44706;-93
2021/09/12 04:44:55;;;;;;;;;51.00;43.60;;;;;17.75;58.00;101436.25;6274189;22;44754;-94
2021/09/12 04:47:24;;;;;;;;;60.50;51.00;;;;;17.38;58.44;101380.84;6274929;22;45078;-93
2021/09/12 04:49:51;;;;;;;;;59.00;49.75;;;;;17.69;58.63;101434.91;6247441;22;44584;-93
2021/09/12 04:52:18;;;;;;;;;58.25;48.75;;;;;17.89;58.40;101463.91;6299447;22;44679;-92
2021/09/12 04:54:43;;;;;;;;;70.25;57.50;;;;;17.60;58.30;101417.66;6274958;22;44768;-94
2021/09/12 04:57:12;;;;;;;;;46.25;40.75;;;;;17.65;58.43;101430.75;6247001;22;45029;-93
2021/09/12 05:00:01;;;;;;;;;60.67;51.00;;;;;17.65;58.76;101435.28;6321972;22;44702;-94
2021/09/12 05:02:29;;;;;;;;;61.25;51.25;;;;;17.61;58.46;101437.34;6273106;22;44771;-94
2021/09/12 05:04:55;;;;;;;;;66.75;55.25;;;;;17.76;58.65;101464.03;6247030;22;44753;-93
2021/09/12 05:07:21;;;;;;;;;56.00;46.40;;;;;17.54;58.90;101428.06;6268621;22;45218;-93
2021/09/12 05:09:47;;;;;;;;;57.50;47.50;;;;;17.55;58.91;101427.94;6248880;22;44673;-94
2021/09/12 05:12:13;;;;;;;;;69.00;56.00;;;;;17.47;58.66;101407.03;6275574;22;44708;-92
2021/09/12 05:14:41;;;;;;;;;57.50;48.00;;;;;17.68;58.64;101451.16;6248528;22;44794;-93
2021/09/12 05:17:09;;;;;;;;;60.00;49.50;;;;;17.73;58.84;101449.81;6271024;22;45090;-92
2021/09/12 05:19:38;;;;;;;;;57.00;48.50;;;;;17.68;58.74;101440.41;6269085;22;44736;-93
2021/09/12 05:22:03;;;;;;;;;57.50;48.25;;;;;17.40;58.62;101388.78;6296988;22;44713;-92
2021/09/12 05:24:29;;;;;;;;;68.00;55.80;;;;;17.61;58.80;101423.91;6271513;22;44883;-93
2021/09/12 05:27:01;;;;;;;;;60.00;48.50;;;;;17.48;59.08;101414.09;6247596;22;45128;-94
2021/09/12 05:29:29;;;;;;;;;58.00;49.50;;;;;17.48;58.66;101406.03;6250589;22;44679;-93
2021/09/12 05:31:56;;;;;;;;;66.20;54.80;;;;;17.53;59.06;101421.81;6247519;22;44606;-93
2021/09/12 05:34:27;;;;;;;;;63.20;51.80;;;;;17.34;59.07;101377.56;6274184;22;44789;-94
2021/09/12 05:36:55;;;;;;;;;58.00;48.25;;;;;17.62;59.26;101422.06;6249138;22;44959;-91
2021/09/12 05:39:23;;;;;;;;;51.75;45.25;;;;;17.45;58.78;101394.69;6252695;22;44668;-93
2021/09/12 05:42:08;;;;;;;;;62.60;51.20;;;;;17.72;58.88;101440.06;6288410;22;44763;-93
2021/09/12 05:44:37;;;;;;;;;50.50;43.25;;;;;17.86;58.58;101457.78;6283425;22;44762;-92
2021/09/12 05:47:04;;;;;;;;;54.75;46.75;;;;;17.54;58.49;101410.06;6254888;22;44965;-94
2021/09/12 05:49:31;;;;;;;;;66.50;55.25;;;;;17.42;58.72;101395.78;6254909;22;44656;-93
2021/09/12 05:51:59;;;;;;;;;61.25;50.75;;;;;17.47;58.84;101407.03;6280038;22;44885;-94
2021/09/12 05:54:30;;;;;;;;;63.20;52.80;;;;;17.87;58.93;101453.28;6281808;22;44789;-93
2021/09/12 05:56:56;;;;;;;;;62.50;52.50;;;;;17.53;58.71;101411.06;6250959;22;44997;-93
2021/09/12 05:59:25;;;;;;;;;60.60;48.80;;;;;17.54;59.29;101404.69;6303666;22;44732;-93
2021/09/12 06:01:56;;;;;;;;;64.25;53.50;;;;;17.79;59.32;101451.19;6280570;22;44634;-93
2021/09/12 06:07:03;;;;;;;;;63.33;52.33;;;;;17.69;58.76;101423.28;6325877;22;45597;-94
2021/09/12 06:09:36;;;;;;;;;64.00;53.67;;;;;17.79;58.80;101443.09;6306355;22;44607;-94
2021/09/12 06:12:09;;;;;;;;;55.00;47.00;;;;;17.84;59.18;101453.50;6305131;22;45099;-92
2021/09/12 06:14:40;;;;;;;;;72.00;59.50;;;;;17.80;58.75;101444.81;6279342;22;44879;-93
2021/09/12 06:17:11;;;;;;;;;62.25;52.50;;;;;18.03;58.93;101482.50;6304335;22;45412;-93
2021/09/12 06:19:42;;;;;;;;;53.00;45.80;;;;;17.76;58.90;101419.13;6304366;22;44705;-93
2021/09/12 06:22:12;;;;;;;;;63.25;52.75;;;;;17.81;58.64;101426.84;6256284;22;44682;-93
2021/09/12 06:24:41;;;;;;;;;47.25;39.75;;;;;17.91;59.22;101451.19;6303206;22;44875;-92
2021/09/12 06:27:13;;;;;;;;;57.25;49.25;;;;;17.95;58.59;101442.75;6252831;22;45374;-93
2021/09/12 06:29:41;;;;;;;;;56.50;48.00;;;;;17.98;58.98;101439.81;6304320;22;44732;-93
2021/09/12 06:32:09;;;;;;;;;43.00;37.80;;;;;18.23;58.37;101478.25;6277461;22;44704;-93
2021/09/12 06:34:36;;;;;;;;;60.50;50.25;;;;;18.18;58.66;101460.78;6256353;22;44849;-94
2021/09/12 06:37:03;;;;;;;;;67.80;54.60;;;;;18.06;58.47;101435.66;6279301;22;45079;-93
2021/09/12 06:39:33;;;;;;;;;50.00;43.25;;;;;18.30;58.40;101451.69;6251083;22;44668;-93
2021/09/12 06:42:23;;;;;;;;;60.75;50.75;;;;;18.05;58.27;101415.97;6253971;22;45131;-96
2021/09/12 06:45:19;;;;;;;;;52.20;43.00;;;;;18.13;58.20;101419.91;6329193;22;44956;-94
2021/09/12 06:47:59;;;;;;;;;56.00;47.00;;;;;18.34;58.50;101457.69;6313117;22;44961;-95
2021/09/12 06:50:29;;;;;;;;;60.50;50.25;;;;;18.23;57.98;101437.03;6254168;22;44727;-94
2021/09/12 06:52:56;;;;;;;;;54.50;47.25;;;;;18.20;58.35;101429.19;6279740;22;44595;-93
2021/09/12 06:55:25;;;;;;;;;71.00;58.25;;;;;18.27;57.67;101446.56;6278499;22;44796;-95
2021/09/12 06:57:53;;;;;;;;;53.40;45.40;;;;;18.15;57.84;101432.25;6252741;22;45478;-93
2021/09/12 07:00:26;;;;;;;;;58.25;48.50;;;;;18.06;57.95;101412.28;6253182;22;44584;-93
2021/09/12 07:02:57;;;;;;;;;67.25;55.00;;;;;18.41;57.30;101460.72;6278280;22;44653;-94
2021/09/12 07:08:00;;;;;;;;;65.25;53.50;;;;;18.51;57.26;101458.16;5119167;27;44759;-94
2021/09/12 07:10:37;;;;;;;;;52.25;44.75;;;;;18.63;57.56;101475.97;5095210;28;44619;-94
2021/09/12 07:13:37;;;;;;;;;61.00;49.67;;;;;18.58;57.88;101467.44;5083447;28;44745;-94
2021/09/12 07:16:09;;;;;;;;;65.50;54.25;;;;;18.71;57.67;101476.22;5080633;28;44857;-93
2021/09/12 07:18:38;;;;;;;;;62.75;52.50;;;;;18.76;57.59;101483.91;5095425;27;45039;-92
2021/09/12 07:21:15;;;;;;;;;67.00;55.25;;;;;18.74;57.68;101459.81;5066291;28;44801;-93
2021/09/12 07:23:42;;;;;;;;;48.25;41.75;;;;;18.69;57.21;101444.97;5078196;28;44857;-93
2021/09/12 07:26:20;;;;;;;;;67.50;55.25;;;;;18.90;57.21;101471.13;5045160;28;44826;-93
2021/09/12 07:28:46;;;;;;;;;63.80;53.40;;;;;18.73;56.11;101435.69;5074854;27;45574;-91
2021/09/12 07:51:58;;;;;;;;;53.75;46.50;;;;;19.35;53.06;101446.72;6003474;22;45819;-88
2021/09/12 09:08:26;;;;;;;;;59.00;48.75;;;;;20.46;47.59;101401.19;5121835;23;44884;-91
2021/09/12 09:10:54;;;;;;;;;58.25;48.00;;;;;21.01;48.19;101484.44;4957677;28;44825;-89
2021/09/12 09:13:39;;;;;;;;;59.00;49.75;;;;;20.71;45.63;101425.91;4952319;28;45223;-89
2021/09/12 09:16:23;;;;;;;;;52.75;44.25;;;;;20.97;47.64;101464.09;4954926;28;44739;-92
2021/09/12 09:18:51;;;;;;;;;47.00;40.60;;;;;21.03;47.30;101462.66;4939247;28;44713;-90
2021/09/12 09:21:28;;;;;;;;;62.80;51.80;;;;;21.09;46.39;101478.31;4927280;28;44915;-90
2021/09/12 09:24:25;;;;;;;;;45.40;37.40;;;;;20.85;48.04;101421.97;4952643;28;45234;-90
2021/09/12 09:26:54;;;;;;;;;;;;;;;21.29;47.54;101484.56;4966752;28;44850;-92
2021/09/12 09:29:24;;;;;;;;;;;;;;;21.36;47.55;101489.41;4956398;28;44872;-91
2021/09/12 09:32:12;;;;;;;;;56.80;47.00;;;;;21.03;47.52;101444.59;4934426;28;44931;-91
2021/09/12 09:34:39;;;;;;;;;64.40;53.00;;;;;21.10;46.68;101444.03;4954908;28;45340;-89
2021/09/12 09:37:17;;;;;;;;;44.60;38.60;;;;;21.39;47.68;101487.25;4930421;28;44756;-91
2021/09/12 09:39:46;;;;;;;;;61.20;51.00;;;;;21.21;46.54;101456.53;4963595;28;44986;-91
2021/09/12 09:42:37;;;;;;;;;63.00;52.40;;;;;21.51;46.94;101487.09;4946717;28;44824;-90
2021/09/12 09:45:17;;;;;;;;;;;;;;;21.51;45.58;101489.81;4947689;28;45653;-90
2021/09/12 09:47:48;;;;;;;;;;;;;;;21.55;45.30;101491.22;4959282;28;44703;-93
2021/09/12 09:53:14;;;;;;;;;59.80;49.60;;;;;21.09;43.77;101426.09;4984201;23;44844;-95
2021/09/12 09:55:39;;;;;;;;;57.00;47.60;;;;;21.49;45.68;101492.66;4911317;28;45279;-89
2021/09/12 09:58:14;;;;;;;;;62.20;51.80;;;;;21.18;46.95;101419.84;4924756;28;44732;-93
2021/09/12 10:00:43;;;;;;;;;54.25;45.75;;;;;21.42;46.88;101445.53;4938563;28;44873;-92
2021/09/12 10:03:18;;;;;;;;;55.75;47.00;;;;;21.72;46.88;101473.41;5226374;23;45711;-91
2021/09/12 10:05:49;;;;;;;;;46.75;40.25;;;;;21.90;46.91;101487.03;5017619;23;45120;-94
2021/09/12 10:08:18;;;;;;;;;20.60;20.60;;;;;21.54;44.31;101425.44;4938426;28;45185;-93
2021/09/12 11:18:09;;;;;;;;;;;;;;;22.24;45.25;101444.13;5873420;23;45665;31
2021/09/12 12:25:01;;;;;;;;;92.00;88.40;;;;;24.39;40.88;101391.63;2584317;23;45197;-91
2021/09/12 12:27:29;;;;;;;;;108.33;106.50;;;;;23.95;41.32;101326.47;4896033;29;44750;-93
2021/09/12 13:19:44;;;;;;;;;149.00;148.60;;;;;24.81;40.64;101311.78;6178133;22;2710696;-95
2021/09/12 13:22:11;;;;;;;;;134.50;134.50;;;;;25.06;40.85;101333.53;6242857;22;44595;-95
2021/09/12 13:24:40;;;;;;;;;148.83;147.33;;;;;24.80;39.47;101284.78;6270732;22;44614;-95
2021/09/12 13:27:19;;;;;;;;;;;;;;;;;;;;;
2021/09/12 13:30:04;;;;;;;;;141.00;141.00;;;;;25.01;40.20;101325.03;6248862;22;45052;-94
2021/09/12 13:32:48;;;;;;;;;137.17;135.67;;;;;25.02;40.70;101347.66;6273655;22;44678;-94
2021/09/12 13:35:20;;;;;;;;;155.00;155.00;;;;;24.87;38.88;101333.91;6277836;22;44800;-95
2021/09/12 13:37:55;;;;;;;;;149.33;149.33;;;;;24.62;41.02;101321.16;6279093;22;44822;-95
2021/09/12 13:40:25;;;;;;;;;24.83;23.50;;;;;24.58;40.02;101328.78;6249337;22;45672;-96
2021/09/12 13:43:04;;;;;;;;;147.33;147.33;;;;;24.50;40.79;101326.06;6275734;22;44630;-95
2021/09/12 13:45:42;;;;;;;;;127.67;127.67;;;;;24.24;40.49;101294.47;6229607;22;44780;-94
2021/09/12 13:48:38;;;;;;;;;138.20;138.20;;;;;24.63;40.05;101350.03;6252179;22;44693;-94
2021/09/12 13:51:07;;;;;;;;;109.00;108.67;;;;;24.39;41.76;101291.94;6277228;22;45300;-94
2021/09/12 13:53:41;;;;;;;;;150.33;150.17;;;;;24.40;41.51;101277.31;6252009;22;44752;-94
2021/09/12 13:56:11;;;;;;;;;144.40;144.40;;;;;24.48;40.49;101290.06;6264784;22;44903;-94
2021/09/12 13:58:36;;;;;;;;;124.50;123.33;;;;;24.68;41.49;101320.47;6217600;22;44749;-94
2021/09/12 14:01:10;;;;;;;;;155.00;154.20;;;;;24.57;41.03;101305.34;6191399;23;45378;-94
2021/09/12 14:04:01;;;;;;;;;106.00;105.80;;;;;24.68;40.74;101335.94;6217297;22;44618;-94
2021/09/12 14:06:27;;;;;;;;;155.50;155.50;;;;;24.46;40.42;101317.41;6239829;22;44792;-95
2021/09/12 14:09:15;;;;;;;;;151.40;151.40;;;;;24.45;41.10;101328.44;6213645;22;44769;-95
2021/09/12 14:11:44;;;;;;;;;111.17;111.00;;;;;24.21;41.18;101294.78;6238272;22;45069;-95
2021/09/12 14:14:17;;;;;;;;;101.20;100.00;;;;;24.08;41.33;101278.94;6215586;22;44555;-94
2021/09/12 14:16:54;;;;;;;;;108.20;107.80;;;;;24.19;41.35;101294.13;6216289;22;44776;-95
2021/09/12 14:19:25;;;;;;;;;104.33;103.83;;;;;24.44;41.90;101332.16;6217092;22;44821;-94
2021/09/12 14:21:54;;;;;;;;;;;;;;;24.42;40.84;101339.66;6213209;23;45214;-95
2021/09/12 14:24:31;;;;;;;;;68.40;60.60;;;;;24.06;41.41;101287.28;6208734;23;44572;-93
2021/09/12 14:27:02;;;;;;;;;119.33;117.83;;;;;23.93;39.92;101273.34;6209220;22;44716;-93
2021/09/12 14:29:30;;;;;;;;;103.83;103.00;;;;;23.92;41.98;101258.91;6206505;22;44743;-94
2021/09/12 14:32:01;;;;;;;;;108.40;106.20;;;;;23.95;41.40;101265.88;6182544;23;44988;-95
2021/09/12 14:34:37;;;;;;;;;131.20;131.20;;;;;24.29;41.74;101308.38;6205754;23;44640;-95
2021/09/12 14:37:13;;;;;;;;;113.17;113.00;;;;;24.15;42.15;101282.72;6209888;22;44725;-94
2021/09/12 15:03:38;;;;;;;;;145.40;145.40;;;;;24.05;42.21;101255.72;6263406;22;46401;-94
2021/09/12 15:06:07;;;;;;;;;138.00;138.00;;;;;24.31;41.86;101297.34;6245079;22;44572;-96
2021/09/12 15:08:49;;;;;;;;;153.33;152.83;;;;;24.26;40.33;101300.59;6270878;22;44610;-94
2021/09/12 15:11:23;;;;;;;;;;;;;;;24.25;41.41;101304.31;6273767;22;44908;-95
2021/09/12 15:14:40;;;;;;;;;118.17;118.17;;;;;24.09;41.98;101284.22;6271381;22;45025;-94
2021/09/12 15:27:48;;;;;;;;;106.33;106.00;;;;;24.27;41.37;101310.44;6239119;22;44666;-95
2021/09/12 15:30:23;;;;;;;;;109.83;109.50;;;;;24.16;41.58;101284.41;6239198;22;44759;-95
2021/09/12 15:33:19;;;;;;;;;78.75;74.00;;;;;23.92;42.47;101237.19;6265068;22;44900;-93
2021/09/12 15:35:46;;;;;;;;;62.83;56.50;;;;;24.30;40.12;101293.78;6264737;22;45260;-94
2021/09/12 15:38:15;;;;;;;;;106.40;106.20;;;;;24.23;41.10;101290.06;6242089;22;44662;-94
2021/09/12 15:40:47;;;;;;;;;121.83;120.83;;;;;23.93;41.01;101248.91;6240697;22;44634;-94
2021/09/12 15:45:53;;;;;;;;;68.60;62.80;;;;;24.21;41.95;101287.50;6204137;22;46430;-94
2021/09/12 15:48:19;;;;;;;;;111.00;111.00;;;;;24.34;41.34;101281.56;6240971;22;44713;-94
2021/09/12 15:50:47;;;;;;;;;;;;;;;24.42;41.48;101288.88;6242721;22;44725;-93
2021/09/12 15:53:16;;;;;;;;;78.80;74.00;;;;;24.30;41.43;101255.75;6292154;22;44812;-94
2021/09/12 15:55:46;;;;;;;;;113.50;113.50;;;;;24.03;41.91;101216.16;6255198;22;45153;-94
2021/09/12 15:58:21;;;;;;;;;126.00;126.00;;;;;24.07;40.47;101228.38;6242820;22;44789;-95
2021/09/12 16:01:12;;;;;;;;;113.17;112.33;;;;;24.01;41.89;101232.63;6210441;22;46109;-94
2021/09/12 16:03:40;;;;;;;;;96.67;95.17;;;;;24.20;41.47;101274.09;6263517;22;44833;-94
2021/09/12 16:06:07;;;;;;;;;96.50;94.67;;;;;24.12;41.04;101272.19;6241418;22;45455;-93
2021/09/12 16:08:43;;;;;;;;;63.20;57.20;;;;;23.68;42.51;101210.84;6244667;22;44674;-94
2021/09/12 16:11:11;;;;;;;;;101.50;100.50;;;;;23.75;42.99;101230.03;6245309;22;44668;-95
2021/09/12 16:18:54;;;;;;;;;107.67;106.83;;;;;23.88;42.37;101252.13;6231282;22;45629;-94
2021/09/12 16:21:25;;;;;;;;;;;;;;;24.03;42.08;101262.31;6247144;22;44659;-94
2021/09/12 16:24:09;;;;;;;;;57.50;51.50;;;;;24.09;42.52;101243.47;6271769;22;44771;-93
2021/09/12 17:38:33;;;;;;;;;54.33;45.50;;;;;22.69;44.04;101137.09;6184004;22;3197892;-90
2021/09/12 17:41:06;;;;;;;;;114.17;114.00;;;;;22.85;44.44;101178.81;6282911;22;44905;-90
2021/09/12 17:43:34;;;;;;;;;60.00;53.50;;;;;22.80;44.14;101187.44;6285510;22;45011;-89
2021/09/12 17:46:11;;;;;;;;;;;;;;;;;;;;;
2021/09/12 17:48:41;;;;;;;;;;;;;;;22.89;44.83;101234.41;6292067;22;68643;-93
2021/09/12 17:51:16;;;;;;;;;45.80;39.20;;;;;22.35;44.34;101166.81;6278728;22;45795;-92
2021/09/12 17:54:16;;;;;;;;;49.25;42.25;;;;;22.14;44.39;101159.88;6276446;22;45263;-92
2021/09/12 17:56:44;;;;;;;;;46.75;40.50;;;;;22.33;43.98;101209.44;6300730;22;44757;-92
2021/09/12 17:59:11;;;;;;;;;49.40;42.40;;;;;22.09;44.83;101175.72;6299620;22;44713;-93
2021/09/12 18:01:41;;;;;;;;;54.75;46.25;;;;;22.28;45.00;101229.72;6301408;22;44892;-93
2021/09/12 18:04:11;;;;;;;;;55.75;47.00;;;;;22.22;44.68;101227.63;6305984;22;45036;-92
2021/09/12 18:06:39;;;;;;;;;53.67;44.67;;;;;21.74;44.82;101160.22;6255762;22;44723;-93
2021/09/12 18:09:23;;;;;;;;;48.80;41.80;;;;;22.10;45.52;101234.31;6280103;22;44747;-93
2021/09/12 18:12:06;;;;;;;;;;;;;;;22.02;45.92;101232.38;6315476;22;44878;-91
2021/09/12 18:15:04;;;;;;;;;64.25;53.00;;;;;21.44;46.05;101147.88;6343797;22;45485;-94
2021/09/12 18:17:39;;;;;;;;;56.25;47.50;;;;;21.58;45.61;101173.56;6332786;22;44655;-94
2021/09/12 18:20:12;;;;;;;;;55.00;46.25;;;;;21.84;45.54;101226.97;6341595;22;44676;-92
2021/09/12 18:23:09;;;;;;;;;46.40;40.20;;;;;21.77;45.92;101234.81;6308270;22;44842;-92
2021/09/12 18:34:11;;;;;;;;;45.40;39.60;;;;;21.56;46.63;101254.88;6338563;22;45013;-93
2021/09/12 18:39:16;;;;;;;;;62.75;52.25;;;;;21.57;46.99;101263.81;6347311;22;46022;-91
2021/09/12 18:41:43;;;;;;;;;47.00;40.50;;;;;21.47;47.12;101253.91;6307004;22;44806;-88
2021/09/12 18:44:12;;;;;;;;;51.60;44.20;;;;;21.25;46.88;101220.84;6305794;22;44913;-89
2021/09/12 18:46:43;;;;;;;;;51.50;43.25;;;;;21.18;46.91;101214.34;6304201;22;45290;-89
2021/09/12 18:49:17;;;;;;;;;;;;;;;21.39;46.65;101261.91;6309439;22;44705;-90
2021/09/12 18:51:44;;;;;;;;;53.80;45.20;;;;;21.35;47.56;101264.06;6331125;22;44720;-90
2021/09/12 18:54:26;;;;;;;;;47.20;40.00;;;;;20.94;47.44;101214.88;6308657;22;44804;-90
2021/09/12 19:04:38;;;;;;;;;55.75;45.50;;;;;20.81;46.98;101205.19;6342294;22;44907;-90
2021/09/12 19:07:10;;;;;;;;;60.00;49.50;;;;;20.90;47.26;101223.28;6308797;22;45256;-88
2021/09/12 19:09:52;;;;;;;;;37.50;34.50;;;;;21.18;47.08;101273.81;6308074;22;44787;-90
2021/09/12 19:12:57;;;;;;;;;45.00;39.00;;;;;21.13;47.72;101270.69;6288118;22;44578;-93
2021/09/12 19:20:36;;;;;;;;;51.75;43.50;;;;;20.86;47.31;101229.94;6299339;22;44673;-92
2021/09/12 19:26:21;;;;;;;;;53.50;45.75;;;;;20.99;47.25;101267.50;6289670;22;44794;-92
2021/09/12 19:29:00;;;;;;;;;46.25;39.75;;;;;20.83;47.83;101240.19;6312850;22;45088;-92
2021/09/12 19:31:53;;;;;;;;;;;;;;;;;;;;;
2021/09/12 19:34:24;;;;;;;;;59.75;50.00;;;;;20.99;47.35;101289.13;6327153;22;69607;-91
2021/09/12 19:36:51;;;;;;;;;65.00;54.00;;;;;20.89;47.78;101277.47;6274719;22;44880;-91
2021/09/12 19:39:23;;;;;;;;;49.75;42.50;;;;;21.03;47.44;101308.56;6250883;22;45334;-91
2021/09/12 19:41:50;;;;;;;;;51.60;43.80;;;;;20.76;47.31;101270.47;6276265;22;44718;-92
2021/09/12 19:44:19;;;;;;;;;48.00;41.25;;;;;20.57;47.43;101240.81;6276182;22;44694;-91
2021/09/12 19:46:47;;;;;;;;;52.75;43.50;;;;;20.78;47.48;101273.03;6274734;22;44843;-92